createdAt,value
2017-11-29T00:00:10.911Z,5.10
2017-11-29T00:02:40.346Z,5.10
2017-11-29T00:05:09.817Z,5.10
2017-11-29T00:07:39.255Z,5.10
2017-11-29T00:10:09.078Z,5.10
2017-11-29T00:12:38.720Z,5.10
2017-11-29T00:15:08.416Z,5.10
2017-11-29T00:17:38.080Z,5.10
2017-11-29T00:20:07.407Z,5.00
2017-11-29T00:22:37.445Z,5.00
2017-11-29T00:25:07.084Z,5.00
2017-11-29T00:27:36.758Z,5.00
2017-11-29T00:30:06.695Z,4.90
2017-11-29T00:32:36.823Z,4.90
2017-11-29T00:35:07.195Z,4.90
2017-11-29T00:37:37.020Z,4.90
2017-11-29T00:40:07.231Z,4.80
2017-11-29T00:42:37.180Z,4.80
2017-11-29T00:45:07.885Z,4.80
2017-11-29T00:47:37.676Z,4.80
2017-11-29T00:50:07.410Z,4.80
2017-11-29T00:52:38.014Z,4.80
2017-11-29T00:55:09.008Z,4.70
2017-11-29T00:57:38.723Z,4.70
2017-11-29T01:00:07.899Z,4.70
2017-11-29T01:02:38.123Z,4.70
2017-11-29T01:05:08.156Z,4.70
2017-11-29T01:07:38.025Z,4.70
2017-11-29T01:10:07.673Z,4.70
2017-11-29T01:12:37.352Z,4.70
2017-11-29T01:15:07.112Z,4.60
2017-11-29T01:17:37.738Z,4.60
2017-11-29T01:20:07.524Z,4.60
2017-11-29T01:22:37.208Z,4.50
2017-11-29T01:25:07.068Z,4.50
2017-11-29T01:27:36.780Z,4.50
2017-11-29T01:30:06.508Z,4.40
2017-11-29T01:32:35.969Z,4.50
2017-11-29T01:35:05.716Z,4.40
2017-11-29T01:37:35.452Z,4.40
2017-11-29T01:40:05.760Z,4.40
2017-11-29T01:42:36.075Z,4.40
2017-11-29T01:45:06.055Z,4.40
2017-11-29T01:47:35.647Z,4.30
2017-11-29T01:50:05.350Z,4.30
2017-11-29T01:52:35.388Z,4.30
2017-11-29T01:55:06.361Z,4.30
2017-11-29T01:57:36.150Z,4.40
2017-11-29T02:00:06.469Z,4.40
2017-11-29T02:02:35.948Z,4.30
2017-11-29T02:05:05.689Z,4.30
2017-11-29T02:07:35.327Z,4.30
2017-11-29T02:10:04.707Z,4.30
2017-11-29T02:12:34.428Z,4.40
2017-11-29T02:15:03.564Z,4.30
2017-11-29T02:17:34.089Z,4.30
2017-11-29T02:20:03.404Z,4.30
2017-11-29T02:22:33.914Z,4.30
2017-11-29T02:25:03.830Z,4.20
2017-11-29T02:27:33.191Z,4.20
2017-11-29T02:30:02.056Z,4.20
2017-11-29T02:32:31.801Z,4.20
2017-11-29T02:35:00.836Z,4.20
2017-11-29T02:37:30.611Z,4.20
2017-11-29T02:40:11.536Z,4.20
2017-11-29T02:42:41.237Z,4.10
2017-11-29T02:45:12.991Z,4.20
2017-11-29T02:47:42.109Z,4.10
2017-11-29T02:50:11.336Z,4.10
2017-11-29T02:52:41.124Z,4.00
2017-11-29T02:55:09.916Z,4.00
2017-11-29T02:57:38.920Z,4.00
2017-11-29T03:00:10.003Z,3.90
2017-11-29T03:02:39.514Z,3.90
2017-11-29T03:05:09.324Z,4.00
2017-11-29T03:07:38.737Z,3.90
2017-11-29T03:10:08.787Z,3.90
2017-11-29T03:12:38.588Z,3.80
2017-11-29T03:15:08.351Z,3.80
2017-11-29T03:17:38.488Z,3.80
2017-11-29T03:20:08.313Z,3.70
2017-11-29T03:22:38.182Z,3.60
2017-11-29T03:25:08.879Z,3.60
2017-11-29T03:27:38.540Z,3.60
2017-11-29T03:30:08.190Z,3.50
2017-11-29T03:32:39.810Z,3.50
2017-11-29T03:35:09.624Z,3.50
2017-11-29T03:37:39.891Z,3.40
2017-11-29T03:40:09.540Z,3.40
2017-11-29T03:42:39.269Z,3.30
2017-11-29T03:45:08.917Z,3.30
2017-11-29T03:47:38.704Z,3.30
2017-11-29T03:50:08.451Z,3.20
2017-11-29T03:52:37.818Z,3.20
2017-11-29T03:55:07.456Z,3.20
2017-11-29T03:57:37.144Z,3.10
2017-11-29T04:00:06.787Z,3.00
2017-11-29T04:02:37.032Z,3.00
2017-11-29T04:05:07.427Z,2.90
2017-11-29T04:07:36.433Z,2.90
2017-11-29T04:10:05.412Z,2.90
2017-11-29T04:12:34.399Z,2.80
2017-11-29T04:15:03.059Z,2.70
2017-11-29T04:17:32.040Z,2.70
2017-11-29T04:20:01.136Z,2.70
2017-11-29T04:22:30.662Z,2.80
2017-11-29T04:24:59.964Z,2.70
2017-11-29T04:27:29.672Z,2.70
2017-11-29T04:29:59.317Z,2.60
2017-11-29T04:32:29.004Z,2.60
2017-11-29T04:34:58.698Z,2.60
2017-11-29T04:37:28.148Z,2.60
2017-11-29T04:39:57.618Z,2.50
2017-11-29T04:42:27.329Z,2.60
2017-11-29T04:44:56.969Z,2.40
2017-11-29T04:47:26.656Z,2.40
2017-11-29T04:49:55.641Z,2.50
2017-11-29T04:52:25.712Z,2.50
2017-11-29T04:54:55.504Z,2.50
2017-11-29T04:57:24.559Z,2.40
2017-11-29T04:59:53.677Z,2.50
2017-11-29T05:02:23.029Z,2.40
2017-11-29T05:04:52.770Z,2.40
2017-11-29T05:07:22.100Z,2.40
2017-11-29T05:09:51.084Z,2.40
2017-11-29T05:12:20.079Z,2.30
2017-11-29T05:14:49.097Z,2.30
2017-11-29T05:17:18.088Z,2.30
2017-11-29T05:19:47.652Z,2.20
2017-11-29T05:22:16.997Z,2.10
2017-11-29T05:24:46.445Z,2.20
2017-11-29T05:27:15.849Z,2.20
2017-11-29T05:29:44.702Z,2.30
2017-11-29T05:32:15.560Z,2.20
2017-11-29T05:34:44.953Z,2.20
2017-11-29T05:37:13.778Z,2.20
2017-11-29T05:39:43.088Z,2.20
2017-11-29T05:42:12.785Z,2.20
2017-11-29T05:44:42.090Z,2.30
2017-11-29T05:47:11.088Z,2.30
2017-11-29T05:49:40.811Z,2.40
2017-11-29T05:52:09.829Z,2.40
2017-11-29T05:54:39.043Z,2.40
2017-11-29T05:57:08.200Z,2.40
2017-11-29T05:59:37.245Z,2.30
2017-11-29T06:02:07.239Z,2.40
2017-11-29T06:04:37.734Z,2.30
2017-11-29T06:07:07.046Z,2.30
2017-11-29T06:09:36.904Z,2.30
2017-11-29T06:12:05.932Z,2.40
2017-11-29T06:14:34.726Z,2.50
2017-11-29T06:17:05.147Z,2.80
2017-11-29T06:19:34.159Z,2.70
2017-11-29T06:22:03.803Z,2.90
2017-11-29T06:24:33.493Z,2.90
2017-11-29T06:27:02.501Z,2.90
2017-11-29T06:29:32.160Z,2.90
2017-11-29T06:32:01.898Z,3.00
2017-11-29T06:34:31.368Z,2.90
2017-11-29T06:37:01.812Z,2.90
2017-11-29T06:39:31.486Z,2.80
2017-11-29T06:42:01.945Z,2.80
2017-11-29T06:44:31.656Z,2.80
2017-11-29T06:47:01.353Z,2.70
2017-11-29T06:49:30.855Z,2.60
2017-11-29T06:52:01.275Z,2.50
2017-11-29T06:54:30.965Z,2.50
2017-11-29T06:57:00.616Z,2.50
2017-11-29T06:59:30.340Z,2.40
2017-11-29T07:01:59.996Z,2.40
2017-11-29T07:04:29.736Z,2.40
2017-11-29T07:07:00.191Z,2.30
2017-11-29T07:09:29.921Z,2.30
2017-11-29T07:11:59.626Z,2.40
2017-11-29T07:14:29.298Z,2.40
2017-11-29T07:16:58.948Z,2.50
2017-11-29T07:19:28.706Z,2.60
2017-11-29T07:21:59.250Z,2.60
2017-11-29T07:24:28.899Z,2.60
2017-11-29T07:26:58.816Z,2.60
2017-11-29T07:29:28.467Z,2.60
2017-11-29T07:31:59.185Z,2.80
2017-11-29T07:34:28.827Z,2.70
2017-11-29T07:36:58.554Z,2.80
2017-11-29T07:39:28.207Z,2.90
2017-11-29T07:41:57.910Z,2.90
2017-11-29T07:44:27.571Z,2.90
2017-11-29T07:46:57.273Z,2.90
2017-11-29T07:49:26.988Z,2.90
2017-11-29T07:51:56.738Z,2.90
2017-11-29T07:54:26.397Z,3.00
2017-11-29T07:56:56.847Z,3.10
2017-11-29T07:59:26.500Z,3.00
2017-11-29T08:01:56.005Z,3.10
2017-11-29T08:04:25.589Z,3.10
2017-11-29T08:06:55.300Z,3.20
2017-11-29T08:09:24.763Z,3.10
2017-11-29T08:11:55.060Z,3.30
2017-11-29T08:14:24.719Z,3.30
2017-11-29T08:16:54.415Z,3.30
2017-11-29T08:19:24.075Z,3.30
2017-11-29T08:21:53.853Z,3.30
2017-11-29T08:24:23.636Z,3.40
2017-11-29T08:26:53.316Z,3.40
2017-11-29T08:29:24.513Z,3.40
2017-11-29T08:31:54.208Z,3.40
2017-11-29T08:34:24.651Z,3.30
2017-11-29T08:36:54.008Z,3.30
2017-11-29T08:39:23.148Z,3.20
2017-11-29T08:41:52.155Z,3.20
2017-11-29T08:44:21.331Z,3.10
2017-11-29T08:46:50.660Z,3.20
2017-11-29T08:49:20.020Z,3.30
2017-11-29T08:51:49.814Z,3.50
2017-11-29T08:54:18.661Z,3.50
2017-11-29T08:56:47.648Z,3.60
2017-11-29T08:59:16.704Z,3.60
2017-11-29T09:01:46.793Z,3.80
2017-11-29T09:04:16.492Z,3.70
2017-11-29T09:06:45.814Z,3.70
2017-11-29T09:09:15.165Z,3.70
2017-11-29T09:11:44.531Z,3.80
2017-11-29T09:14:13.581Z,4.00
2017-11-29T09:16:42.597Z,4.20
2017-11-29T09:19:11.659Z,4.30
2017-11-29T09:21:40.475Z,4.30
2017-11-29T09:24:09.348Z,4.30
2017-11-29T09:26:38.188Z,4.40
2017-11-29T09:29:07.756Z,4.60
2017-11-29T09:31:36.734Z,4.60
2017-11-29T09:34:05.782Z,4.60
2017-11-29T09:36:34.611Z,4.50
2017-11-29T09:39:03.227Z,4.60
2017-11-29T09:41:32.055Z,4.50
2017-11-29T09:44:01.446Z,4.60
2017-11-29T09:46:30.446Z,4.60
2017-11-29T09:49:00.027Z,4.70
2017-11-29T09:51:28.855Z,4.70
2017-11-29T09:53:58.086Z,4.80
2017-11-29T09:56:27.125Z,4.80
2017-11-29T09:58:56.324Z,4.90
2017-11-29T10:01:25.944Z,5.20
2017-11-29T10:03:55.354Z,5.50
2017-11-29T10:06:24.399Z,5.50
2017-11-29T10:08:53.209Z,5.60
2017-11-29T10:11:22.045Z,5.70
2017-11-29T10:13:51.068Z,5.90
2017-11-29T10:16:20.073Z,6.00
2017-11-29T10:18:49.501Z,6.00
2017-11-29T10:21:20.016Z,6.00
2017-11-29T10:23:49.033Z,6.00
2017-11-29T10:26:18.267Z,6.20
2017-11-29T10:28:47.362Z,6.50
2017-11-29T10:31:16.415Z,6.60
2017-11-29T10:33:45.862Z,6.40
2017-11-29T10:36:14.691Z,6.20
2017-11-29T10:38:43.710Z,6.20
2017-11-29T10:41:12.731Z,6.40
2017-11-29T10:43:41.991Z,6.30
2017-11-29T10:46:10.989Z,6.30
2017-11-29T10:48:40.563Z,6.40
2017-11-29T10:51:09.593Z,6.40
2017-11-29T10:53:39.378Z,6.40
2017-11-29T10:56:08.204Z,6.40
2017-11-29T10:58:37.777Z,6.40
2017-11-29T11:01:06.788Z,6.40
2017-11-29T11:03:35.655Z,6.40
2017-11-29T11:06:04.552Z,6.40
2017-11-29T11:08:33.366Z,6.30
2017-11-29T11:11:02.276Z,6.30
2017-11-29T11:13:31.065Z,6.30
2017-11-29T11:16:00.823Z,6.40
2017-11-29T11:18:29.670Z,6.40
2017-11-29T11:20:59.240Z,6.70
2017-11-29T11:23:28.298Z,6.70
2017-11-29T11:25:57.227Z,6.60
2017-11-29T11:28:26.322Z,6.80
2017-11-29T11:30:55.133Z,6.80
2017-11-29T11:33:23.777Z,6.90
2017-11-29T11:35:52.788Z,7.20
2017-11-29T11:38:21.588Z,7.40
2017-11-29T11:40:50.436Z,7.60
2017-11-29T11:43:19.455Z,7.90
2017-11-29T11:45:48.364Z,8.10
2017-11-29T11:48:17.356Z,8.50
2017-11-29T11:50:46.161Z,8.90
2017-11-29T11:53:15.860Z,9.80
2017-11-29T11:55:45.304Z,9.70
2017-11-29T11:58:14.287Z,9.90
2017-11-29T12:00:43.352Z,9.90
2017-11-29T12:03:12.804Z,9.90
2017-11-29T12:05:41.821Z,10.80
2017-11-29T12:08:11.240Z,11.70
2017-11-29T12:10:40.596Z,12.30
2017-11-29T12:13:09.610Z,12.70
2017-11-29T12:15:39.063Z,13.00
2017-11-29T12:18:08.064Z,13.00
2017-11-29T12:20:37.310Z,12.60
2017-11-29T12:23:06.327Z,12.50
2017-11-29T12:25:35.355Z,12.60
2017-11-29T12:28:05.140Z,12.60
2017-11-29T12:30:33.943Z,12.60
2017-11-29T12:33:03.660Z,12.80
2017-11-29T12:35:33.222Z,12.50
2017-11-29T12:38:02.222Z,12.50
2017-11-29T12:40:31.772Z,12.00
2017-11-29T12:43:01.955Z,10.70
2017-11-29T12:45:31.323Z,10.70
2017-11-29T12:51:08.741Z,9.70
2017-11-29T12:53:37.550Z,9.40
2017-11-29T12:56:06.886Z,9.40
2017-11-29T12:58:35.911Z,9.30
2017-11-29T13:01:04.703Z,9.20
2017-11-29T13:03:34.323Z,9.20
2017-11-29T13:06:03.368Z,9.20
2017-11-29T13:08:32.174Z,9.20
2017-11-29T13:11:01.167Z,8.90
2017-11-29T13:13:30.783Z,8.80
2017-11-29T13:16:00.875Z,8.60
2017-11-29T13:18:30.484Z,8.70
2017-11-29T13:20:59.859Z,8.70
2017-11-29T13:23:28.843Z,8.50
2017-11-29T13:25:57.888Z,8.40
2017-11-29T13:28:26.870Z,8.40
2017-11-29T13:30:55.880Z,7.90
2017-11-29T13:33:25.584Z,7.70
2017-11-29T13:35:54.908Z,7.70
2017-11-29T13:38:24.251Z,7.60
2017-11-29T13:40:53.424Z,7.30
2017-11-29T13:43:22.411Z,7.00
2017-11-29T13:45:51.411Z,6.90
2017-11-29T13:48:20.778Z,6.90
2017-11-29T13:50:50.120Z,6.70
2017-11-29T13:53:19.104Z,6.60
2017-11-29T13:55:48.475Z,6.40
2017-11-29T13:58:18.245Z,6.20
2017-11-29T14:00:47.619Z,6.10
2017-11-29T14:03:16.744Z,6.00
2017-11-29T14:05:45.618Z,6.00
2017-11-29T14:08:14.976Z,5.80
2017-11-29T14:10:44.308Z,5.70
2017-11-29T14:13:14.239Z,5.60
2017-11-29T14:15:43.891Z,5.60
2017-11-29T14:18:13.564Z,5.50
2017-11-29T14:20:43.365Z,5.50
2017-11-29T14:23:13.175Z,5.40
2017-11-29T14:25:42.873Z,5.40
2017-11-29T14:28:12.521Z,5.40
2017-11-29T14:30:42.208Z,5.40
2017-11-29T14:33:11.859Z,5.30
2017-11-29T14:35:41.546Z,5.30
2017-11-29T14:38:10.982Z,5.20
2017-11-29T14:40:40.648Z,5.10
2017-11-29T14:43:10.338Z,5.10
2017-11-29T14:45:39.876Z,5.10
2017-11-29T14:48:09.407Z,5.10
2017-11-29T14:50:39.143Z,5.00
2017-11-29T14:53:08.652Z,5.00
2017-11-29T14:55:37.931Z,4.90
2017-11-29T14:58:07.636Z,4.90
2017-11-29T15:00:37.284Z,4.90
2017-11-29T15:03:06.996Z,4.80
2017-11-29T15:05:37.414Z,4.70
2017-11-29T15:08:07.871Z,4.70
2017-11-29T15:10:37.564Z,4.70
2017-11-29T15:13:07.220Z,4.70
2017-11-29T15:15:36.899Z,4.70
2017-11-29T15:18:06.589Z,4.70
2017-11-29T15:20:36.305Z,4.70
2017-11-29T15:23:05.990Z,4.60
2017-11-29T15:25:37.003Z,4.70
2017-11-29T15:28:06.684Z,4.70
2017-11-29T15:30:35.772Z,4.70
2017-11-29T15:33:04.553Z,4.60
2017-11-29T15:35:33.884Z,4.60
2017-11-29T15:38:03.574Z,4.50
2017-11-29T15:40:32.560Z,4.50
2017-11-29T15:43:02.216Z,4.50
2017-11-29T15:45:32.011Z,4.60
2017-11-29T15:48:01.860Z,4.50
2017-11-29T15:50:31.209Z,4.50
2017-11-29T15:53:00.901Z,4.50
2017-11-29T15:55:30.563Z,4.60
2017-11-29T15:58:00.456Z,4.50
2017-11-29T16:00:29.769Z,4.50
2017-11-29T16:02:59.530Z,4.40
2017-11-29T16:05:29.950Z,4.40
2017-11-29T16:08:00.394Z,4.30
2017-11-29T16:10:30.152Z,4.30
2017-11-29T16:12:59.720Z,4.30
2017-11-29T16:15:29.042Z,4.30
2017-11-29T16:17:58.716Z,4.30
2017-11-29T16:20:28.369Z,4.30
2017-11-29T16:22:58.052Z,4.20
2017-11-29T16:25:27.576Z,4.20
2017-11-29T16:27:57.268Z,4.10
2017-11-29T16:30:26.919Z,4.00
2017-11-29T16:32:56.684Z,4.00
2017-11-29T16:35:26.414Z,4.00
2017-11-29T16:37:56.331Z,4.00
2017-11-29T16:40:26.042Z,4.10
2017-11-29T16:42:55.528Z,4.00
2017-11-29T16:45:24.519Z,4.00
2017-11-29T16:47:54.253Z,4.00
2017-11-29T16:50:23.808Z,4.00
2017-11-29T16:52:54.225Z,4.00
2017-11-29T16:55:23.793Z,4.00
2017-11-29T16:57:53.497Z,4.00
2017-11-29T17:00:22.496Z,3.90
2017-11-29T17:02:52.008Z,3.90
2017-11-29T17:05:21.670Z,3.90
2017-11-29T17:07:51.355Z,3.90
2017-11-29T17:10:21.008Z,3.90
2017-11-29T17:12:50.695Z,3.90
2017-11-29T17:15:21.196Z,3.90
2017-11-29T17:17:50.887Z,3.90
2017-11-29T17:20:20.550Z,3.90
2017-11-29T17:22:51.023Z,3.90
2017-11-29T17:25:20.388Z,3.90
2017-11-29T17:27:50.053Z,3.90
2017-11-29T17:30:19.378Z,3.80
2017-11-29T17:32:49.733Z,3.90
2017-11-29T17:35:19.746Z,3.90
2017-11-29T17:37:49.475Z,3.90
2017-11-29T17:40:18.464Z,3.90
2017-11-29T17:42:48.162Z,3.90
2017-11-29T17:45:17.501Z,3.90
2017-11-29T17:47:47.152Z,3.90
2017-11-29T17:50:17.290Z,3.90
2017-11-29T17:52:46.932Z,3.90
2017-11-29T17:55:16.633Z,3.90
2017-11-29T17:57:45.958Z,3.80
2017-11-29T18:00:15.269Z,3.90
2017-11-29T18:02:44.959Z,3.80
2017-11-29T18:05:14.619Z,3.80
2017-11-29T18:07:44.339Z,3.90
2017-11-29T18:10:13.995Z,3.90
2017-11-29T18:12:43.660Z,3.90
2017-11-29T18:15:13.443Z,3.90
2017-11-29T18:17:43.133Z,3.80
2017-11-29T18:20:12.784Z,3.80
2017-11-29T18:22:41.779Z,3.70
2017-11-29T18:25:12.040Z,3.70
2017-11-29T18:27:41.022Z,3.70
2017-11-29T18:30:10.502Z,3.70
2017-11-29T18:32:40.270Z,3.70
2017-11-29T18:35:09.969Z,3.70
2017-11-29T18:37:39.623Z,3.70
2017-11-29T18:40:09.788Z,3.60
2017-11-29T18:42:39.428Z,3.60
2017-11-29T18:45:08.423Z,3.60
2017-11-29T18:47:38.144Z,3.60
2017-11-29T18:50:07.805Z,3.50
2017-11-29T18:52:37.483Z,3.50
2017-11-29T18:55:07.140Z,3.50
2017-11-29T18:57:36.832Z,3.50
2017-11-29T19:00:06.053Z,3.40
2017-11-29T19:02:35.532Z,3.40
2017-11-29T19:05:05.905Z,3.40
2017-11-29T19:07:35.559Z,3.40
2017-11-29T19:10:05.268Z,3.40
2017-11-29T19:12:35.212Z,3.40
2017-11-29T19:15:04.723Z,3.30
2017-11-29T19:17:34.209Z,3.30
2017-11-29T19:20:03.515Z,3.30
2017-11-29T19:22:33.206Z,3.20
2017-11-29T19:25:02.862Z,3.20
2017-11-29T19:27:32.539Z,3.20
2017-11-29T19:30:02.198Z,3.20
2017-11-29T19:32:31.962Z,3.10
2017-11-29T19:35:01.612Z,3.10
2017-11-29T19:37:31.333Z,3.10
2017-11-29T19:40:01.760Z,3.00
2017-11-29T19:42:32.196Z,3.00
2017-11-29T19:45:02.624Z,3.00
2017-11-29T19:47:33.095Z,3.00
2017-11-29T19:50:02.797Z,3.00
2017-11-29T19:52:32.514Z,2.90
2017-11-29T19:55:02.218Z,3.00
2017-11-29T19:57:31.735Z,3.00
2017-11-29T20:00:01.209Z,2.90
2017-11-29T20:02:30.492Z,3.00
2017-11-29T20:05:00.575Z,2.90
2017-11-29T20:07:30.024Z,2.90
2017-11-29T20:09:59.213Z,2.90
2017-11-29T20:12:29.011Z,3.00
2017-11-29T20:14:58.784Z,3.00
2017-11-29T20:17:28.495Z,3.00
2017-11-29T20:19:57.506Z,3.00
2017-11-29T20:22:27.159Z,2.90
2017-11-29T20:24:56.875Z,2.90
2017-11-29T20:27:26.523Z,2.90
2017-11-29T20:29:56.221Z,2.80
2017-11-29T20:32:25.558Z,2.80
2017-11-29T20:34:55.216Z,2.90
2017-11-29T20:37:25.038Z,2.90
2017-11-29T20:39:54.716Z,2.80
2017-11-29T20:42:25.151Z,2.80
2017-11-29T20:44:55.575Z,2.80
2017-11-29T20:47:26.775Z,2.80
2017-11-29T20:49:56.419Z,2.80
2017-11-29T20:52:41.864Z,2.90
2017-11-29T20:55:11.329Z,2.90
2017-11-29T20:57:41.016Z,2.90
2017-11-29T21:00:10.947Z,2.90
2017-11-29T21:02:40.597Z,2.90
2017-11-29T21:05:10.687Z,2.90
2017-11-29T21:07:40.395Z,2.90
2017-11-29T21:10:09.721Z,2.90
2017-11-29T21:12:39.362Z,2.90
2017-11-29T21:15:08.376Z,2.80
2017-11-29T21:17:38.480Z,2.70
2017-11-29T21:20:08.191Z,2.70
2017-11-29T21:22:37.616Z,2.70
2017-11-29T21:25:08.051Z,2.70
2017-11-29T21:27:37.749Z,2.70
2017-11-29T21:30:07.542Z,2.80
2017-11-29T21:32:37.214Z,2.80
2017-11-29T21:35:06.896Z,2.80
2017-11-29T21:37:37.328Z,2.80
2017-11-29T21:40:07.194Z,2.80
2017-11-29T21:42:36.896Z,2.80
2017-11-29T21:45:06.608Z,2.60
2017-11-29T21:47:36.260Z,2.50
2017-11-29T21:50:05.988Z,2.60
2017-11-29T21:52:35.653Z,2.70
2017-11-29T21:55:05.349Z,2.70
2017-11-29T21:57:35.007Z,2.70
2017-11-29T22:00:04.760Z,2.70
2017-11-29T22:02:34.454Z,2.60
2017-11-29T22:05:03.976Z,2.60
2017-11-29T22:07:33.627Z,2.60
2017-11-29T22:10:03.399Z,2.60
2017-11-29T22:12:33.052Z,2.60
2017-11-29T22:15:03.332Z,2.60
2017-11-29T22:17:33.058Z,2.50
2017-11-29T22:20:04.361Z,2.60
2017-11-29T22:22:33.696Z,2.60
2017-11-29T22:25:03.364Z,2.70
2017-11-29T22:27:32.387Z,2.80
2017-11-29T22:30:02.033Z,2.80
2017-11-29T22:32:32.504Z,2.80
2017-11-29T22:35:02.171Z,2.80
2017-11-29T22:37:31.864Z,2.80
2017-11-29T22:40:01.541Z,2.80
2017-11-29T22:42:31.236Z,2.90
2017-11-29T22:45:00.899Z,2.90
2017-11-29T22:47:30.409Z,2.80
2017-11-29T22:50:00.064Z,2.80
2017-11-29T22:52:29.745Z,2.70
2017-11-29T22:55:00.223Z,2.80
2017-11-29T22:57:29.868Z,2.80
2017-11-29T22:59:59.736Z,2.70
2017-11-29T23:02:29.428Z,2.70
2017-11-29T23:05:00.911Z,2.70
2017-11-29T23:07:31.477Z,2.70
2017-11-29T23:10:01.706Z,2.60
2017-11-29T23:12:32.170Z,2.60
2017-11-29T23:15:01.821Z,2.60
2017-11-29T23:17:32.296Z,2.60
2017-11-29T23:20:01.737Z,2.60
2017-11-29T23:22:31.484Z,2.60
2017-11-29T23:25:01.150Z,2.60
2017-11-29T23:27:30.622Z,2.60
2017-11-29T23:30:00.272Z,2.60
2017-11-29T23:32:29.952Z,2.60
2017-11-29T23:34:59.626Z,2.60
2017-11-29T23:37:29.345Z,2.70
2017-11-29T23:39:59.788Z,2.70
2017-11-29T23:42:29.469Z,2.70
2017-11-29T23:44:59.186Z,2.70
2017-11-29T23:47:28.877Z,2.70
2017-11-29T23:49:58.571Z,2.70
2017-11-29T23:52:27.891Z,2.70
2017-11-29T23:54:57.548Z,2.60
2017-11-29T23:57:27.248Z,2.50
2017-11-29T23:59:56.889Z,2.60
